Time;durP1;ratioP1;P1;durP2;ratioP2;P2;SDS_P1;SDS_P2;PMS_P1;PMS_P2;Temp;Humidity;BMP_temperature;BMP_pressure;BME280_temperature;BME280_humidity;BME280_pressure;Samples;Min_cycle;Max_cycle;Signal;HPM_P1;HPM_P2
2022/03/19 00:02:01;;;;;;;7.90;4.50;;;11.60;62.50;;;;;;5012728;28;20028;-82
2022/03/19 00:04:27;;;;;;;5.82;3.67;;;11.60;62.60;;;;;;5023214;28;20121;-82
2022/03/19 00:06:53;;;;;;;6.30;4.07;;;11.50;62.50;;;;;;5012441;28;20120;-81
2022/03/19 00:09:19;;;;;;;7.70;5.30;;;11.50;62.50;;;;;;5023770;28;20538;-81
2022/03/19 00:11:45;;;;;;;5.88;4.03;;;11.40;62.40;;;;;;5020882;28;20125;-81
2022/03/19 00:14:12;;;;;;;7.40;4.43;;;11.40;62.70;;;;;;5011161;28;20029;-81
2022/03/19 00:16:38;;;;;;;4.75;3.90;;;11.40;62.50;;;;;;5002452;28;20440;-81
2022/03/19 00:19:05;;;;;;;9.93;4.22;;;11.30;62.40;;;;;;5012693;28;20434;-82
2022/03/19 00:21:34;;;;;;;6.65;4.55;;;11.30;62.90;;;;;;5007759;28;20021;-82
2022/03/19 00:24:02;;;;;;;5.63;4.50;;;11.30;62.40;;;;;;5023138;28;20041;-82
2022/03/19 00:26:30;;;;;;;7.45;4.00;;;11.20;62.30;;;;;;5022254;28;20025;-82
2022/03/19 00:28:56;;;;;;;6.57;5.05;;;11.20;62.40;;;;;;5022487;28;20056;-82
2022/03/19 00:31:22;;;;;;;8.02;4.78;;;11.20;62.40;;;;;;5021241;28;20041;-81
2022/03/19 00:33:47;;;;;;;8.02;4.43;;;11.10;62.30;;;;;;5017017;28;20025;-81
2022/03/19 00:36:13;;;;;;;7.00;4.43;;;11.10;62.30;;;;;;5022948;28;20096;-81
2022/03/19 00:38:39;;;;;;;7.30;4.78;;;11.10;62.30;;;;;;5032108;28;20040;-82
2022/03/19 00:41:06;;;;;;;6.63;4.72;;;11.10;62.30;;;;;;5022015;28;20128;-82
2022/03/19 00:43:32;;;;;;;6.50;5.35;;;11.10;62.30;;;;;;5023950;28;20026;-81
2022/03/19 00:45:58;;;;;;;8.02;5.30;;;11.00;62.20;;;;;;5017106;28;20057;-82
2022/03/19 00:48:24;;;;;;;7.80;5.70;;;11.00;62.20;;;;;;5007540;28;20065;-81
2022/03/19 00:50:50;;;;;;;6.45;4.45;;;11.00;62.20;;;;;;5026507;28;20489;-82
2022/03/19 00:53:16;;;;;;;7.85;5.65;;;10.90;62.00;;;;;;5018616;28;20057;-83
2022/03/19 00:55:43;;;;;;;7.78;5.57;;;10.90;62.10;;;;;;5023071;28;20053;-82
2022/03/19 00:58:08;;;;;;;6.88;5.47;;;10.90;62.10;;;;;;5023686;28;20071;-82
2022/03/19 01:00:34;;;;;;;8.43;5.43;;;10.90;62.70;;;;;;5018180;28;20041;-83
2022/03/19 01:03:00;;;;;;;7.55;5.03;;;10.90;62.20;;;;;;5024413;28;20029;-82
2022/03/19 01:05:26;;;;;;;8.85;7.03;;;10.80;62.10;;;;;;5014568;28;20025;-83
2022/03/19 01:07:55;;;;;;;7.07;5.80;;;10.80;62.10;;;;;;5025462;28;20511;-80
2022/03/19 01:10:29;;;;;;;9.23;5.35;;;10.80;62.10;;;;;;5028904;28;20033;-80
2022/03/19 01:12:56;;;;;;;8.18;5.88;;;10.80;62.20;;;;;;5028601;28;20040;-81
2022/03/19 01:15:24;;;;;;;7.68;6.28;;;10.80;62.20;;;;;;5027848;28;20053;-81
2022/03/19 01:17:51;;;;;;;8.75;6.35;;;10.80;62.20;;;;;;5027099;28;20029;-80
2022/03/19 01:20:17;;;;;;;7.15;5.18;;;10.80;62.20;;;;;;5008705;28;20042;-81
2022/03/19 01:22:45;;;;;;;9.25;6.93;;;10.70;62.10;;;;;;5022111;28;20500;-81
2022/03/19 01:25:13;;;;;;;8.25;5.50;;;10.70;62.10;;;;;;5023797;28;20033;-80
2022/03/19 01:27:41;;;;;;;11.55;6.13;;;10.70;62.10;;;;;;5026720;28;20025;-81
2022/03/19 01:30:08;;;;;;;8.57;6.10;;;10.70;62.10;;;;;;5037395;28;20030;-82
2022/03/19 01:32:35;;;;;;;11.15;7.70;;;10.70;62.10;;;;;;5022944;28;20121;-81
2022/03/19 01:35:01;;;;;;;8.98;6.82;;;10.70;62.10;;;;;;5025848;28;20040;-81
2022/03/19 01:37:27;;;;;;;8.73;5.97;;;10.70;62.10;;;;;;5025694;28;20461;-81
2022/03/19 01:39:55;;;;;;;10.48;6.93;;;10.70;62.10;;;;;;5027722;28;20120;-81
2022/03/19 01:42:27;;;;;;;8.48;6.05;;;10.70;62.20;;;;;;5027151;28;20037;-82
2022/03/19 01:44:54;;;;;;;8.27;5.97;;;10.60;62.00;;;;;;5026443;28;20061;-81
2022/03/19 01:47:21;;;;;;;10.60;7.57;;;10.60;62.00;;;;;;5026333;28;20488;-82
2022/03/19 01:49:47;;;;;;;7.93;6.32;;;10.60;62.00;;;;;;5025874;28;20129;-80
2022/03/19 01:52:13;;;;;;;7.38;5.93;;;10.60;62.10;;;;;;5026277;28;20108;-81
2022/03/19 01:54:43;;;;;;;8.75;6.07;;;10.60;62.10;;;;;;5042130;28;20056;-81
2022/03/19 01:57:11;;;;;;;9.82;7.47;;;10.60;62.10;;;;;;5025372;28;20052;-78
2022/03/19 01:59:38;;;;;;;9.98;6.65;;;10.50;61.90;;;;;;5041268;28;20128;-80
2022/03/19 02:02:06;;;;;;;10.90;7.13;;;10.50;62.00;;;;;;5027991;28;20034;-81
2022/03/19 02:04:36;;;;;;;11.95;8.40;;;10.50;62.00;;;;;;5022593;28;20064;-80
2022/03/19 02:07:03;;;;;;;9.75;6.18;;;10.50;62.00;;;;;;5026610;28;20488;-80
2022/03/19 02:09:29;;;;;;;9.32;6.10;;;10.40;61.90;;;;;;5026534;28;20083;-80
2022/03/19 02:11:55;;;;;;;9.00;6.32;;;10.40;61.90;;;;;;5027115;28;20029;-80
2022/03/19 02:14:22;;;;;;;10.32;6.10;;;10.40;62.00;;;;;;5026386;28;20034;-80
2022/03/19 02:16:48;;;;;;;9.18;6.18;;;10.40;62.00;;;;;;5027445;28;20040;-80
2022/03/19 02:19:16;;;;;;;8.13;6.40;;;10.40;62.00;;;;;;5026726;28;20025;-79
2022/03/19 02:21:49;;;;;;;9.75;5.90;;;10.40;62.10;;;;;;5026682;28;20041;-79
2022/03/19 02:27:02;;;;;;;8.77;6.13;;;10.30;61.90;;;;;;5014632;28;20527;-79
2022/03/19 02:29:28;;;;;;;9.68;6.38;;;10.30;61.90;;;;;;5020763;28;20074;-80
2022/03/19 02:31:56;;;;;;;9.13;6.28;;;10.30;61.90;;;;;;5025449;28;20033;-81
2022/03/19 02:34:22;;;;;;;13.82;7.28;;;10.30;62.00;;;;;;5023645;28;20033;-80
2022/03/19 02:36:49;;;;;;;7.97;6.28;;;10.20;61.80;;;;;;5016559;28;20034;-79
2022/03/19 02:39:20;;;;;;;9.80;6.60;;;10.20;61.80;;;;;;5019681;28;20493;-79
2022/03/19 02:41:48;;;;;;;9.32;6.30;;;10.20;61.90;;;;;;5026783;28;20029;-79
2022/03/19 02:44:16;;;;;;;10.00;6.32;;;10.20;61.90;;;;;;5026474;28;20356;-79
2022/03/19 02:46:53;;;;;;;10.00;6.57;;;10.20;61.90;;;;;;5015231;28;20093;-79
2022/03/19 02:49:20;;;;;;;13.65;6.82;;;10.10;61.90;;;;;;5042343;28;20515;-79
2022/03/19 02:51:47;;;;;;;8.25;6.80;;;10.10;61.80;;;;;;5029200;28;20025;-79
2022/03/19 02:54:16;;;;;;;9.95;6.65;;;10.10;61.90;;;;;;5009225;28;20030;-79
2022/03/19 02:56:43;;;;;;;9.23;6.88;;;10.10;61.90;;;;;;5033685;28;20033;-81
2022/03/19 02:59:13;;;;;;;8.73;7.30;;;10.00;61.80;;;;;;5028238;28;20037;-82
2022/03/19 03:01:39;;;;;;;11.07;6.32;;;10.00;61.80;;;;;;5027043;28;20040;-80
2022/03/19 03:04:05;;;;;;;9.40;7.20;;;10.00;61.80;;;;;;5027431;28;20093;-80
2022/03/19 03:06:40;;;;;;;7.97;6.75;;;9.90;61.70;;;;;;5028427;28;20492;-79
2022/03/19 03:09:08;;;;;;;8.85;7.30;;;9.90;61.80;;;;;;5028413;28;20222;-79
2022/03/19 03:11:38;;;;;;;10.38;8.07;;;9.90;61.80;;;;;;5028384;28;20396;-80
2022/03/19 03:14:06;;;;;;;10.00;6.80;;;9.90;61.80;;;;;;5019556;28;20400;-80
2022/03/19 03:16:32;;;;;;;10.13;7.22;;;9.90;61.80;;;;;;5027548;28;20226;-80
2022/03/19 03:19:02;;;;;;;10.65;7.25;;;9.80;61.70;;;;;;5028193;28;20164;-79
2022/03/19 03:21:28;;;;;;;9.65;6.85;;;9.80;61.70;;;;;;5022782;28;20042;-81
2022/03/19 03:23:55;;;;;;;12.80;7.65;;;9.80;61.70;;;;;;5024289;28;20482;-82
2022/03/19 03:26:22;;;;;;;11.35;7.55;;;9.80;61.70;;;;;;5022871;28;20441;-79
2022/03/19 03:28:48;;;;;;;12.90;7.72;;;9.80;61.80;;;;;;5028157;28;20140;-80
2022/03/19 03:31:15;;;;;;;12.70;7.85;;;9.80;61.80;;;;;;5026072;28;20256;-79
2022/03/19 03:33:41;;;;;;;9.75;7.18;;;9.80;61.80;;;;;;5021538;28;20085;-79
2022/03/19 03:36:07;;;;;;;10.52;7.75;;;9.70;61.70;;;;;;5027034;28;20476;-80
2022/03/19 03:38:35;;;;;;;11.32;7.75;;;9.70;61.70;;;;;;5040890;28;20560;-80
2022/03/19 03:41:01;;;;;;;11.50;7.75;;;9.70;61.70;;;;;;5027060;28;20129;-79
2022/03/19 03:43:27;;;;;;;10.90;9.07;;;9.70;61.80;;;;;;5016295;28;20177;-80
2022/03/19 03:45:53;;;;;;;11.60;8.43;;;9.70;61.80;;;;;;5026189;28;20506;-80
2022/03/19 03:48:19;;;;;;;10.48;7.70;;;9.70;61.80;;;;;;5018771;28;20033;-80
2022/03/19 03:50:48;;;;;;;11.93;8.15;;;9.60;61.70;;;;;;5009116;28;20080;-80
2022/03/19 03:53:14;;;;;;;9.70;8.20;;;9.60;61.70;;;;;;5042942;28;20539;-80
2022/03/19 03:55:40;;;;;;;10.48;8.15;;;9.60;61.80;;;;;;5038997;28;20066;-80
2022/03/19 03:58:08;;;;;;;11.13;8.55;;;9.60;62.40;;;;;;5027611;28;20120;-80
2022/03/19 04:00:34;;;;;;;12.50;9.55;;;9.50;61.70;;;;;;5025347;28;20579;-79
2022/03/19 04:03:00;;;;;;;11.18;8.63;;;9.50;61.70;;;;;;5028384;28;20128;-80
2022/03/19 04:05:26;;;;;;;11.70;9.52;;;9.50;61.70;;;;;;5027307;28;20044;-81
2022/03/19 04:07:54;;;;;;;11.02;8.43;;;9.50;61.80;;;;;;5027261;28;20032;-80
2022/03/19 04:10:20;;;;;;;12.00;8.90;;;9.50;61.80;;;;;;5015666;28;20037;-80
2022/03/19 04:12:46;;;;;;;12.95;10.13;;;9.50;61.80;;;;;;5026087;28;20034;-80
2022/03/19 04:15:12;;;;;;;13.52;9.45;;;9.40;61.70;;;;;;5042350;28;20555;-80
2022/03/19 04:17:38;;;;;;;14.02;9.18;;;9.40;61.70;;;;;;5027327;28;20025;-80
2022/03/19 04:20:07;;;;;;;13.68;9.68;;;9.40;61.80;;;;;;5010869;28;20052;-80
2022/03/19 04:22:41;;;;;;;11.77;9.27;;;9.40;61.80;;;;;;5045005;28;20029;-80
2022/03/19 04:25:15;;;;;;;12.25;8.98;;;9.40;61.80;;;;;;5028186;28;20151;-79
2022/03/19 04:27:42;;;;;;;14.50;9.50;;;9.40;61.80;;;;;;5044111;28;20396;-79
2022/03/19 04:30:13;;;;;;;12.93;9.90;;;9.40;61.80;;;;;;5027534;28;20037;-78
2022/03/19 04:32:45;;;;;;;16.27;10.57;;;9.40;61.80;;;;;;5028568;28;20029;-79
2022/03/19 04:38:06;;;;;;;12.88;9.38;;;9.30;61.70;;;;;;5028614;28;20026;-79
2022/03/19 04:40:34;;;;;;;14.05;11.30;;;9.40;61.90;;;;;;5027406;28;20048;-80
2022/03/19 04:43:00;;;;;;;14.15;10.50;;;9.30;61.70;;;;;;5016330;28;20017;-80
2022/03/19 04:45:26;;;;;;;14.63;11.18;;;9.30;61.70;;;;;;5042418;28;20036;-79
2022/03/19 04:47:53;;;;;;;14.52;11.07;;;9.30;61.70;;;;;;5025261;28;20033;-79
2022/03/19 04:50:19;;;;;;;14.43;10.88;;;9.30;61.80;;;;;;5026850;28;20033;-79
2022/03/19 04:52:46;;;;;;;16.95;11.25;;;9.30;61.80;;;;;;5026220;28;20120;-79
2022/03/19 04:55:12;;;;;;;12.93;10.50;;;9.30;61.80;;;;;;5014088;28;20112;-80
2022/03/19 04:57:38;;;;;;;16.73;11.45;;;9.30;61.80;;;;;;5025923;28;20492;-79
2022/03/19 05:00:07;;;;;;;16.67;13.02;;;9.30;61.90;;;;;;5025608;28;20037;-79
2022/03/19 05:02:33;;;;;;;16.10;11.07;;;9.30;61.90;;;;;;5027358;28;20041;-79
2022/03/19 05:05:00;;;;;;;16.95;12.43;;;9.30;61.90;;;;;;5026553;28;20025;-80
2022/03/19 05:07:27;;;;;;;13.60;10.95;;;9.30;61.90;;;;;;5026914;28;20408;-80
2022/03/19 05:12:43;;;;;;;20.10;14.00;;;9.30;61.90;;;;;;5022603;28;20026;-79
2022/03/19 05:15:14;;;;;;;17.70;13.32;;;9.20;61.80;;;;;;5024740;28;20056;-79
2022/03/19 05:17:40;;;;;;;14.40;11.77;;;9.20;61.80;;;;;;5017308;28;20113;-79
2022/03/19 05:20:07;;;;;;;16.35;13.07;;;9.20;61.80;;;;;;5018117;28;20041;-80
2022/03/19 05:22:34;;;;;;;15.20;12.60;;;9.20;61.90;;;;;;5026988;28;20053;-79
2022/03/19 05:25:01;;;;;;;16.50;12.98;;;9.20;61.90;;;;;;5021233;28;20068;-80
2022/03/19 05:27:28;;;;;;;19.25;13.55;;;9.20;62.00;;;;;;5013413;28;20179;-80
2022/03/19 05:29:54;;;;;;;20.50;14.10;;;9.10;61.80;;;;;;5026697;28;20037;-79
2022/03/19 05:32:21;;;;;;;17.30;13.32;;;9.10;61.80;;;;;;5027451;28;20044;-80
2022/03/19 05:34:47;;;;;;;16.35;14.07;;;9.10;61.90;;;;;;5019709;28;20037;-81
2022/03/19 05:37:14;;;;;;;16.27;13.57;;;9.10;61.90;;;;;;5025752;28;20543;-81
2022/03/19 05:39:40;;;;;;;17.40;13.32;;;9.10;61.90;;;;;;5026550;28;20038;-80
2022/03/19 05:42:07;;;;;;;17.23;14.55;;;9.10;62.40;;;;;;5014800;28;20026;-79
2022/03/19 05:44:33;;;;;;;20.92;13.35;;;9.10;62.00;;;;;;5026630;28;20040;-80
2022/03/19 05:47:00;;;;;;;16.85;13.93;;;9.00;61.80;;;;;;5025090;28;20493;-81
2022/03/19 05:49:27;;;;;;;18.30;12.80;;;9.10;62.00;;;;;;5018359;28;20268;-80
2022/03/19 05:51:55;;;;;;;17.05;13.88;;;9.00;61.80;;;;;;5017411;28;20041;-80
2022/03/19 05:54:21;;;;;;;18.33;14.07;;;9.00;61.90;;;;;;5027720;28;20055;-80
2022/03/19 05:56:47;;;;;;;18.15;13.52;;;9.00;61.90;;;;;;5026474;28;20130;-80
2022/03/19 05:59:13;;;;;;;19.58;14.88;;;9.00;61.90;;;;;;5024299;28;20040;-80
2022/03/19 06:01:42;;;;;;;15.57;12.88;;;9.00;61.90;;;;;;5014373;28;20076;-80
2022/03/19 06:04:08;;;;;;;15.50;13.27;;;9.00;61.90;;;;;;5024919;28;20470;-81
2022/03/19 06:06:34;;;;;;;16.05;13.82;;;9.00;62.00;;;;;;5013429;28;20046;-80
2022/03/19 06:09:00;;;;;;;17.13;13.50;;;8.90;61.80;;;;;;5027370;28;20052;-81
2022/03/19 06:11:27;;;;;;;18.92;14.32;;;8.90;61.90;;;;;;5025328;28;20033;-81
2022/03/19 06:13:54;;;;;;;19.55;14.63;;;8.90;61.90;;;;;;5026751;28;20406;-79
2022/03/19 06:16:20;;;;;;;20.08;14.65;;;8.90;61.90;;;;;;5024320;28;20032;-80
2022/03/19 06:18:49;;;;;;;18.35;14.43;;;8.90;61.90;;;;;;5026283;28;20558;-80
2022/03/19 06:21:16;;;;;;;18.65;14.15;;;8.90;61.90;;;;;;5025853;28;20053;-82
2022/03/19 06:23:46;;;;;;;19.77;15.00;;;8.90;61.90;;;;;;5024010;28;20044;-80
2022/03/19 06:26:13;;;;;;;19.00;14.35;;;8.90;62.00;;;;;;5025326;28;20085;-80
2022/03/19 06:28:40;;;;;;;18.95;15.35;;;8.90;62.00;;;;;;5017113;28;20034;-81
2022/03/19 06:31:06;;;;;;;16.42;14.68;;;8.90;61.90;;;;;;5024516;28;20026;-80
2022/03/19 06:33:32;;;;;;;16.63;14.65;;;8.90;61.90;;;;;;5027647;28;20091;-81
2022/03/19 06:38:42;;;;;;;17.15;14.48;;;8.90;61.90;;;;;;5023352;28;20084;-81
2022/03/19 06:41:10;;;;;;;17.95;14.10;;;8.90;61.90;;;;;;5024384;28;20045;-81
2022/03/19 06:43:37;;;;;;;18.70;14.98;;;8.90;61.90;;;;;;5025558;28;20029;-81
2022/03/19 06:46:03;;;;;;;19.00;14.85;;;8.90;62.50;;;;;;5025283;28;20542;-80
2022/03/19 06:48:28;;;;;;;21.63;15.82;;;9.00;62.00;;;;;;5024986;28;20059;-83
2022/03/19 06:50:55;;;;;;;21.23;14.82;;;9.00;62.00;;;;;;5020635;28;20041;-81
2022/03/19 06:53:24;;;;;;;19.00;16.05;;;9.00;62.00;;;;;;5021508;28;20041;-89
2022/03/19 06:55:51;;;;;;;16.70;14.90;;;9.00;62.00;;;;;;5028504;28;20161;-85
2022/03/19 06:58:19;;;;;;;19.95;15.13;;;9.00;61.90;;;;;;5026344;28;20113;-85
2022/03/19 07:00:45;;;;;;;18.00;14.93;;;9.10;62.60;;;;;;5026391;28;20099;-85
2022/03/19 07:03:12;;;;;;;22.15;15.65;;;9.10;62.10;;;;;;5008991;28;20200;-86
2022/03/19 07:05:38;;;;;;;21.10;15.93;;;9.00;61.90;;;;;;5025772;28;20551;-84
2022/03/19 07:08:08;;;;;;;17.05;14.40;;;9.10;62.00;;;;;;5015735;28;20053;-84
2022/03/19 07:10:37;;;;;;;20.77;15.70;;;9.10;61.90;;;;;;5018298;28;20037;-85
2022/03/19 07:13:03;;;;;;;18.73;15.80;;;9.10;61.90;;;;;;5012001;28;20177;-84
2022/03/19 07:15:29;;;;;;;25.50;16.27;;;9.20;62.10;;;;;;5026053;28;20026;-85
2022/03/19 07:18:00;;;;;;;18.98;16.30;;;9.20;62.00;;;;;;5016563;28;20029;-83
2022/03/19 07:20:27;;;;;;;21.08;17.73;;;9.30;62.10;;;;;;5025377;28;20041;-83
2022/03/19 07:22:53;;;;;;;19.20;15.43;;;9.30;62.00;;;;;;5017744;28;20029;-79
2022/03/19 07:25:21;;;;;;;17.30;15.45;;;9.40;62.00;;;;;;5015630;28;20476;-81
2022/03/19 07:27:50;;;;;;;24.65;16.90;;;9.50;62.10;;;;;;5022925;28;20056;-79
2022/03/19 07:30:16;;;;;;;19.90;17.73;;;9.60;62.00;;;;;;5015990;28;20025;-80
2022/03/19 07:32:42;;;;;;;20.98;17.17;;;9.60;61.90;;;;;;5015324;28;20416;-78
2022/03/19 07:35:09;;;;;;;21.80;16.38;;;9.60;61.70;;;;;;5017861;28;20520;-79
2022/03/19 07:37:37;;;;;;;23.55;17.10;;;9.70;61.60;;;;;;5026895;28;20030;-78
2022/03/19 07:40:04;;;;;;;26.73;17.17;;;9.80;61.60;;;;;;5007270;28;20447;-80
2022/03/19 07:42:30;;;;;;;21.17;16.85;;;9.90;62.00;;;;;;5021403;28;20048;-80
2022/03/19 07:44:56;;;;;;;24.55;18.00;;;9.90;61.20;;;;;;5020604;28;20404;-79
2022/03/19 07:47:22;;;;;;;21.35;15.85;;;10.00;61.10;;;;;;5020308;28;20050;-79
2022/03/19 07:49:48;;;;;;;25.85;17.17;;;10.00;61.00;;;;;;5023767;28;20087;-80
2022/03/19 07:52:14;;;;;;;22.25;17.75;;;10.10;60.90;;;;;;5035166;28;20044;-79
2022/03/19 07:54:40;;;;;;;21.20;16.50;;;10.10;60.70;;;;;;5034351;28;20041;-82
2022/03/19 07:57:07;;;;;;;23.40;16.60;;;10.10;60.60;;;;;;5016857;28;20033;-81
2022/03/19 07:59:33;;;;;;;20.65;17.20;;;10.10;60.50;;;;;;5019687;28;20715;-83
2022/03/19 08:02:00;;;;;;;23.27;17.17;;;10.10;61.00;;;;;;5012385;28;20034;-79
2022/03/19 08:04:26;;;;;;;17.75;15.15;;;10.10;60.40;;;;;;5015845;28;20106;-80
2022/03/19 08:06:53;;;;;;;25.63;16.35;;;10.10;60.40;;;;;;5019194;28;20405;-80
2022/03/19 08:09:20;;;;;;;24.25;17.33;;;10.10;60.30;;;;;;5010148;28;20041;-80
2022/03/19 08:11:47;;;;;;;20.05;16.60;;;10.10;60.30;;;;;;5017422;28;20033;-79
2022/03/19 08:14:14;;;;;;;18.67;15.98;;;10.20;60.40;;;;;;5018924;28;20029;-79
2022/03/19 08:16:41;;;;;;;22.98;17.23;;;10.20;60.30;;;;;;5054757;28;20053;-79
2022/03/19 08:19:09;;;;;;;19.30;16.35;;;10.20;60.20;;;;;;5043593;28;20028;-81
2022/03/19 08:21:35;;;;;;;22.10;16.70;;;10.20;60.10;;;;;;5042858;28;20034;-80
2022/03/19 08:24:00;;;;;;;21.30;16.65;;;10.20;60.00;;;;;;5062656;28;20052;-80
2022/03/19 08:26:26;;;;;;;22.23;16.63;;;10.30;60.10;;;;;;5041865;28;20378;-80
2022/03/19 08:28:53;;;;;;;25.40;17.65;;;10.30;60.00;;;;;;5045741;28;20049;-79
2022/03/19 08:31:19;;;;;;;23.52;16.75;;;10.30;59.90;;;;;;5047004;28;20033;-81
2022/03/19 08:33:44;;;;;;;28.50;17.15;;;10.40;60.00;;;;;;5043598;28;20026;-81
2022/03/19 08:36:10;;;;;;;20.27;17.25;;;10.40;59.80;;;;;;5044983;28;20105;-79
2022/03/19 08:41:21;;;;;;;18.35;15.95;;;10.50;59.70;;;;;;5029135;28;20049;-83
2022/03/19 08:43:47;;;;;;;21.17;15.75;;;10.50;59.60;;;;;;5016971;28;20404;-82
2022/03/19 08:46:12;;;;;;;18.33;15.50;;;10.50;59.60;;;;;;5024203;28;20903;-82
2022/03/19 08:48:38;;;;;;;21.50;15.35;;;10.60;59.90;;;;;;5024927;28;20084;-80
2022/03/19 08:53:49;;;;;;;19.42;15.57;;;10.80;60.30;;;;;;5019627;28;20034;-81
2022/03/19 08:56:16;;;;;;;18.40;16.23;;;10.80;60.10;;;;;;5021012;28;20021;-78
2022/03/19 08:58:42;;;;;;;19.92;15.52;;;10.90;60.20;;;;;;5021078;28;20041;-79
2022/03/19 09:01:07;;;;;;;20.48;15.73;;;11.00;60.30;;;;;;5020219;28;20033;-79
2022/03/19 09:03:33;;;;;;;17.95;15.77;;;11.00;60.20;;;;;;5020305;28;20076;-79
2022/03/19 09:06:00;;;;;;;19.02;15.70;;;11.10;60.40;;;;;;5019974;28;20492;-78
2022/03/19 09:08:26;;;;;;;18.75;15.35;;;11.10;60.30;;;;;;5019429;28;20036;-79
2022/03/19 09:10:53;;;;;;;18.70;14.95;;;11.10;60.30;;;;;;5021745;28;20029;-78
2022/03/19 09:13:19;;;;;;;21.80;15.65;;;11.20;60.90;;;;;;5021821;28;20129;-78
2022/03/19 09:15:45;;;;;;;22.42;15.98;;;11.20;60.30;;;;;;5018473;28;20512;-79
2022/03/19 09:18:11;;;;;;;16.70;14.55;;;11.30;60.40;;;;;;5019909;28;20040;-80
2022/03/19 09:20:37;;;;;;;19.52;15.98;;;11.30;60.30;;;;;;5023239;28;20042;-79
2022/03/19 09:23:03;;;;;;;18.00;16.27;;;11.40;60.40;;;;;;5022027;28;20128;-79
2022/03/19 09:25:29;;;;;;;18.52;15.25;;;11.40;60.30;;;;;;5024294;28;20029;-79
2022/03/19 09:27:56;;;;;;;16.42;14.73;;;11.50;60.40;;;;;;5041196;28;20155;-78
2022/03/19 09:30:21;;;;;;;18.33;14.48;;;11.50;60.30;;;;;;5015264;28;20069;-76
2022/03/19 09:32:47;;;;;;;19.55;15.98;;;11.60;60.40;;;;;;5013891;28;20388;-79
2022/03/19 09:35:13;;;;;;;19.42;16.02;;;11.60;60.30;;;;;;5024648;28;20037;-80
2022/03/19 09:37:39;;;;;;;19.45;16.33;;;11.70;60.40;;;;;;5025333;28;20532;-79
2022/03/19 09:40:06;;;;;;;18.88;15.13;;;11.70;60.30;;;;;;5026593;28;20045;-79
2022/03/19 09:42:34;;;;;;;16.85;15.05;;;11.80;60.30;;;;;;5023746;28;20618;-79
2022/03/19 09:45:00;;;;;;;18.20;15.43;;;11.80;60.20;;;;;;5041233;28;20078;-78
2022/03/19 09:47:26;;;;;;;18.63;15.70;;;11.90;60.30;;;;;;5023971;28;20045;-79
2022/03/19 09:49:53;;;;;;;18.17;16.27;;;11.90;60.20;;;;;;5026104;28;20029;-81
2022/03/19 09:52:20;;;;;;;20.73;15.82;;;11.90;60.10;;;;;;5012991;28;20030;-80
2022/03/19 09:54:46;;;;;;;19.50;15.65;;;12.00;60.30;;;;;;5018234;28;20550;-79
2022/03/19 09:57:13;;;;;;;18.35;15.98;;;12.00;60.10;;;;;;5021810;28;20455;-79
2022/03/19 09:59:39;;;;;;;21.88;16.42;;;12.10;60.20;;;;;;5025941;28;20030;-79
2022/03/19 10:02:10;;;;;;;18.08;16.27;;;12.10;60.10;;;;;;5018711;28;20033;-80
2022/03/19 10:04:40;;;;;;;19.75;16.65;;;12.20;60.20;;;;;;5024818;28;20035;-79
2022/03/19 10:09:52;;;;;;;19.98;17.17;;;12.30;60.20;;;;;;5025349;28;20467;-78
2022/03/19 10:12:25;;;;;;;18.67;16.63;;;12.40;60.30;;;;;;5029632;28;20097;-78
2022/03/19 10:14:56;;;;;;;21.23;18.00;;;12.40;60.00;;;;;;5025370;28;20040;-79
2022/03/19 10:17:36;;;;;;;19.83;16.98;;;12.50;60.10;;;;;;5040667;28;20302;-79
2022/03/19 10:20:13;;;;;;;19.80;17.25;;;12.60;60.10;;;;;;5026644;28;20155;-79
2022/03/19 10:22:46;;;;;;;17.80;15.88;;;12.60;59.90;;;;;;5026089;28;20040;-79
2022/03/19 10:25:12;;;;;;;;;;;12.70;60.00;;;;;;5028506;28;20574;-79
2022/03/19 10:27:43;;;;;;;19.48;15.93;;;12.80;60.10;;;;;;5012431;28;19920;-79
2022/03/19 10:30:19;;;;;;;18.55;15.40;;;12.80;60.00;;;;;;5024699;28;20033;-80
2022/03/19 10:32:58;;;;;;;17.30;15.30;;;13.00;60.20;;;;;;5026136;28;20029;-79
2022/03/19 10:35:34;;;;;;;18.73;16.55;;;13.10;60.20;;;;;;5022658;28;20199;-79
2022/03/19 10:38:15;;;;;;;18.63;15.57;;;13.10;60.10;;;;;;5027327;28;20057;-79
2022/03/19 10:40:43;;;;;;;17.02;14.75;;;13.20;60.10;;;;;;5027048;28;20041;-80
2022/03/19 10:43:11;;;;;;;17.67;15.35;;;13.20;60.00;;;;;;5022384;28;20422;-80
2022/03/19 10:45:48;;;;;;;19.50;14.93;;;13.30;60.70;;;;;;5026305;28;20469;-80
2022/03/19 10:48:28;;;;;;;18.63;16.52;;;13.40;60.20;;;;;;5024355;28;20404;-79
2022/03/19 10:50:55;;;;;;;15.27;13.00;;;13.50;60.30;;;;;;5040222;28;20487;-79
2022/03/19 10:53:22;;;;;;;18.55;13.73;;;13.50;60.20;;;;;;5024732;28;20558;-80
2022/03/19 10:55:49;;;;;;;17.10;14.63;;;13.60;60.30;;;;;;5025035;28;20029;-78
2022/03/19 10:58:16;;;;;;;16.17;12.80;;;13.70;60.40;;;;;;5024567;28;20072;-80
2022/03/19 11:00:43;;;;;;;18.08;13.45;;;13.70;60.20;;;;;;5009471;28;20367;-80
2022/03/19 11:03:18;;;;;;;16.10;12.95;;;13.80;60.80;;;;;;5020913;28;20052;-80
2022/03/19 11:05:45;;;;;;;14.15;12.65;;;13.80;60.10;;;;;;5023815;28;20075;-79
2022/03/19 11:08:13;;;;;;;16.65;13.98;;;13.90;60.10;;;;;;5038763;28;20575;-78
2022/03/19 11:10:40;;;;;;;15.55;12.63;;;13.90;59.90;;;;;;5025282;28;20071;-79
2022/03/19 11:13:08;;;;;;;16.52;14.82;;;14.00;59.90;;;;;;5039147;28;20144;-80
2022/03/19 11:15:34;;;;;;;16.30;13.13;;;14.10;59.90;;;;;;5022616;28;20037;-79
2022/03/19 11:18:07;;;;;;;14.40;12.85;;;14.10;59.70;;;;;;5011298;28;20025;-78
2022/03/19 11:20:33;;;;;;;14.35;11.80;;;14.20;59.70;;;;;;5028304;28;20042;-79
2022/03/19 11:23:03;;;;;;;14.00;12.13;;;14.30;59.80;;;;;;5022723;28;20362;-78
2022/03/19 11:26:01;;;;;;;12.63;11.32;;;14.30;59.60;;;;;;5014858;28;20484;-78
2022/03/19 11:28:27;;;;;;;13.73;11.00;;;14.40;59.70;;;;;;4977108;28;20149;-78
2022/03/19 11:31:01;;;;;;;14.18;12.18;;;14.40;59.50;;;;;;5022537;28;20251;-78
2022/03/19 11:33:32;;;;;;;14.48;11.20;;;14.50;59.50;;;;;;5023805;28;20029;-79
2022/03/19 11:36:01;;;;;;;11.10;9.98;;;14.60;59.70;;;;;;5022678;28;20034;-77
2022/03/19 11:38:28;;;;;;;12.55;10.80;;;14.60;59.60;;;;;;5016170;28;20033;-78
2022/03/19 11:40:56;;;;;;;10.82;9.73;;;14.70;59.70;;;;;;5023381;28;20112;-79
2022/03/19 11:43:33;;;;;;;18.77;9.00;;;14.70;59.50;;;;;;5017705;28;20131;-79
2022/03/19 11:46:11;;;;;;;15.70;8.93;;;14.80;59.20;;;;;;5019183;28;20688;-81
2022/03/19 11:48:41;;;;;;;16.85;9.32;;;14.80;58.20;;;;;;5017251;28;20091;-79
2022/03/19 11:51:29;;;;;;;13.18;8.43;;;14.70;57.50;;;;;;5038414;28;20029;-80
2022/03/19 11:54:02;;;;;;;15.23;8.02;;;14.80;56.60;;;;;;5024604;28;20029;-80
2022/03/19 11:56:44;;;;;;;15.30;8.20;;;14.80;56.20;;;;;;5038272;28;20033;-82
2022/03/19 11:59:15;;;;;;;20.33;7.82;;;14.80;55.30;;;;;;5014295;28;20040;-79
2022/03/19 12:02:05;;;;;;;12.55;7.50;;;14.80;55.20;;;;;;5017010;28;20068;-80
2022/03/19 12:04:52;;;;;;;18.15;9.43;;;14.80;54.30;;;;;;5023684;28;20535;-81
2022/03/19 12:07:44;;;;;;;14.95;7.57;;;14.80;54.10;;;;;;5014905;28;20034;-81
2022/03/19 12:10:24;;;;;;;15.25;7.78;;;14.90;53.60;;;;;;5035860;28;20040;-81
2022/03/19 12:12:50;;;;;;;14.88;9.32;;;14.90;53.70;;;;;;5035181;28;20076;-81
2022/03/19 12:15:32;;;;;;;13.95;8.15;;;14.90;53.50;;;;;;5034518;28;20351;-82
2022/03/19 12:18:29;;;;;;;13.60;7.80;;;14.90;52.40;;;;;;5006544;28;20025;-81
2022/03/19 12:21:01;;;;;;;11.10;7.30;;;15.00;52.10;;;;;;5011086;28;20511;-82
2022/03/19 12:23:27;;;;;;;18.60;7.55;;;15.00;52.30;;;;;;5009371;28;20025;-82
2022/03/19 12:26:05;;;;;;;15.30;6.85;;;15.00;51.90;;;;;;5036785;28;20026;-80
2022/03/19 12:28:31;;;;;;;14.30;7.47;;;15.10;51.70;;;;;;5021011;28;20030;-81
2022/03/19 12:31:12;;;;;;;11.48;7.60;;;15.10;51.40;;;;;;5021640;28;20025;-80
2022/03/19 12:33:39;;;;;;;18.67;7.50;;;15.20;50.80;;;;;;5024472;28;20042;-80
2022/03/19 12:36:17;;;;;;;10.30;6.85;;;15.30;51.00;;;;;;4999910;28;20087;-79
2022/03/19 12:38:44;;;;;;;13.32;7.65;;;15.30;50.30;;;;;;5021737;28;20079;-80
2022/03/19 12:41:24;;;;;;;16.90;7.00;;;15.30;50.40;;;;;;5021539;28;20760;-81
2022/03/19 12:43:51;;;;;;;14.25;7.65;;;15.40;49.90;;;;;;5028684;28;20444;-81
2022/03/19 12:46:32;;;;;;;15.93;7.60;;;15.40;49.90;;;;;;5022079;28;20076;-83
2022/03/19 12:49:05;;;;;;;15.02;7.18;;;15.50;49.30;;;;;;5038109;28;20436;-81
2022/03/19 12:51:33;;;;;;;15.40;8.18;;;15.50;49.10;;;;;;5021823;28;20071;-81
2022/03/19 12:53:59;;;;;;;18.55;7.47;;;15.60;49.10;;;;;;5018509;28;20342;-82
2022/03/19 12:56:28;;;;;;;13.68;7.88;;;15.60;48.70;;;;;;5013506;28;20492;-81
2022/03/19 12:58:56;;;;;;;15.10;7.38;;;15.70;48.50;;;;;;5021464;28;20030;-79
2022/03/19 13:01:25;;;;;;;11.73;7.35;;;15.70;48.10;;;;;;5020284;28;20081;-80
2022/03/19 13:03:57;;;;;;;15.02;8.90;;;15.80;47.90;;;;;;5026011;28;20786;-79